Data for 12/20/2007

Time Sea-Level Adjusted Pressure Absolute Pressure Temperature Relative Humidity Dew Point   
(mb) (inHg) (mb) (inHg) (C) (F) (%) (C) (F)
00:05 1007 29.74 837 24.72 3.3 37.9 52 -5.7 21.7
00:10 1007 29.74 837 24.72 3.3 37.9 52 -5.5 22
00:15 1007 29.74 837 24.72 3.1 37.5 54 -5.4 22.2
00:20 1007 29.74 837 24.72 3 37.3 54 -5.3 22.4
00:25 1007 29.74 837 24.72 2.9 37.2 55 -5.4 22.3
00:30 1007 29.74 837 24.72 2.9 37.2 55 -5.2 22.6
00:35 1007 29.74 837 24.72 2.8 37.1 56 -5.2 22.7
00:40 1007 29.74 837 24.72 2.8 37.1 57 -4.9 23.2
00:45 1007 29.74 837 24.72 2.8 37 57 -4.9 23.1
00:50 1007 29.74 837 24.72 2.8 37.1 56 -5 22.9
00:55 1007 29.74 837 24.72 2.9 37.2 57 -4.7 23.5
01:00 1007 29.74 837 24.72 2.8 37.1 57 -4.8 23.4
01:05 1007 29.74 837 24.72 2.8 37 59 -4.5 24
01:10 1007 29.74 836 24.69 2.6 36.8 59 -4.5 23.8
01:15 1007 29.74 836 24.69 2.7 36.9 58 -4.7 23.6
01:20 1007 29.74 836 24.69 2.7 36.8 60 -4.4 24.2
01:25 1007 29.74 836 24.69 2.5 36.6 61 -4.2 24.4
01:30 1007 29.74 836 24.69 2.2 36 62 -4.2 24.4
01:35 1007 29.74 836 24.69 1.9 35.4 63 -4.4 24
01:40 1007 29.74 836 24.69 1.8 35.2 64 -4.4 24.1
01:45 1007 29.74 836 24.69 1.7 35.1 64 -4.4 24
01:50 1007 29.74 836 24.69 1.9 35.4 61 -4.8 23.4
01:55 1007 29.74 836 24.69 2.1 35.7 61 -4.7 23.5
02:00 1007 29.74 836 24.69 2.2 36 59 -5 23
02:05 1007 29.74 836 24.69 2.4 36.4 58 -5 23
02:10 1006 29.71 836 24.69 2.3 36.1 62 -4.3 24.3
02:15 1006 29.71 836 24.69 1.7 35 64 -4.4 24.1
02:20 1007 29.74 836 24.69 1.3 34.4 64 -4.6 23.7
02:25 1007 29.74 836 24.69 1.4 34.6 63 -4.9 23.3
02:30 1007 29.74 836 24.69 1.5 34.8 62 -5 23.1
02:35 1006 29.71 836 24.69 1.8 35.2 60 -5.2 22.7
02:40 1006 29.71 836 24.69 2.1 35.7 58 -5.2 22.6
02:45 1006 29.71 835 24.66 2.3 36.1 58 -5.1 22.9
02:50 1006 29.71 835 24.66 2.2 35.9 59 -5 23
02:55 1006 29.71 835 24.66 2.1 35.7 60 -4.9 23.1
03:00 1006 29.71 835 24.66 2 35.5 60 -5.1 22.8
03:05 1006 29.71 835 24.66 2 35.6 59 -5.2 22.7
03:10 1006 29.71 835 24.66 2.1 35.8 58 -5.2 22.7
03:15 1006 29.71 835 24.66 2.2 35.9 60 -4.7 23.5
03:20 1006 29.71 835 24.66 1.9 35.4 60 -5 23.1
03:25 1006 29.71 835 24.66 1.8 35.2 62 -4.7 23.5
03:30 1006 29.71 835 24.66 1.4 34.5 63 -5 23.1
03:35 1005 29.68 835 24.66 1.1 33.9 64 -5 23.1
03:40 1005 29.68 835 24.66 1 33.8 64 -5 23.1
03:45 1005 29.68 835 24.66 0.8 33.5 65 -4.9 23.1
03:50 1005 29.68 834 24.63 0.7 33.2 65 -5.2 22.6
03:55 1005 29.68 834 24.63 0.8 33.5 64 -5.2 22.6
04:00 1005 29.68 834 24.63 0.9 33.7 65 -5 23
04:05 1005 29.68 834 24.63 0.8 33.5 64 -5.2 22.7
04:10 1005 29.68 834 24.63 0.9 33.6 64 -5.2 22.6
04:15 1005 29.68 834 24.63 1 33.8 63 -5.2 22.7
04:20 1005 29.68 834 24.63 1.1 34 63 -5.2 22.7
04:25 1005 29.68 834 24.63 1.1 33.9 64 -5.1 22.8
04:30 1005 29.68 834 24.63 1.2 34.1 60 -5.8 21.6
04:35 1005 29.68 834 24.63 1.9 35.4 58 -5.6 21.9
04:40 1005 29.68 834 24.63 2.1 35.7 59 -5.2 22.7
04:45 1005 29.68 834 24.63 1.9 35.5 61 -4.7 23.5
04:50 1005 29.68 835 24.66 1.4 34.6 62 -5 23
04:55 1005 29.68 835 24.66 1.5 34.7 60 -5.5 22.1
05:00 1005 29.68 835 24.66 2 35.5 59 -5.3 22.5
05:05 1005 29.68 834 24.63 2 35.7 58 -5.3 22.5
05:10 1005 29.68 834 24.63 2.2 35.9 57 -5.5 22.2
05:15 1005 29.68 834 24.63 2.4 36.3 58 -5.1 22.8
05:20 1005 29.68 834 24.63 2.2 36 58 -5.2 22.6
05:25 1005 29.68 834 24.63 2 35.7 60 -5 23
05:30 1005 29.68 834 24.63 1.7 35 58 -5.7 21.8
05:35 1005 29.68 834 24.63 2 35.6 58 -5.4 22.3
05:40 1005 29.68 834 24.63 2.3 36.1 55 -5.9 21.4
05:45 1005 29.68 834 24.63 2.8 37 52 -6 21.1
05:50 1005 29.68 834 24.63 3.2 37.7 52 -5.8 21.6
05:55 1005 29.68 834 24.63 3.3 37.9 52 -5.6 21.8
06:00 1005 29.68 834 24.63 3 37.5 55 -5.2 22.7
06:05 1005 29.68 834 24.63 2.6 36.7 54 -5.7 21.8
06:10 1005 29.68 834 24.63 2.7 36.8 55 -5.5 22.2
06:15 1005 29.68 834 24.63 2.8 37 52 -6.1 21
06:20 1005 29.68 834 24.63 3.1 37.6 54 -5.4 22.3
06:25 1005 29.68 834 24.63 2.8 37.1 57 -5 23.1
06:30 1005 29.68 834 24.63 1.9 35.5 58 -5.5 22.1
06:35 1005 29.68 834 24.63 1.9 35.4 57 -5.7 21.7
06:40 1005 29.68 834 24.63 2 35.6 58 -5.4 22.2
06:45 1005 29.68 834 24.63 1.8 35.3 60 -5.2 22.6
06:50 1005 29.68 834 24.63 1.5 34.7 59 -5.6 22
06:55 1005 29.68 834 24.63 1.8 35.2 58 -5.7 21.7
07:00 1005 29.68 834 24.63 2.4 36.4 55 -5.8 21.6
07:05 1005 29.68 834 24.63 2.7 36.9 50 -6.6 20.1
07:10 1005 29.68 834 24.63 3.4 38.1 48 -6.6 20
07:15 1005 29.68 834 24.63 4 39.2 47 -6.4 20.6
07:20 1005 29.68 834 24.63 4 39.3 47 -6.2 20.9
07:25 1005 29.68 834 24.63 3.9 39.1 48 -6.1 21.1
07:30 1005 29.68 834 24.63 3.8 38.9 48 -6.1 21
07:35 1005 29.68 834 24.63 3.8 38.9 48 -6.1 21.1
07:40 1005 29.68 834 24.63 3.8 38.8 49 -6 21.2
07:45 1005 29.68 834 24.63 3.6 38.4 50 -5.8 21.5
07:50 1005 29.68 834 24.63 3.5 38.3 51 -5.7 21.7
07:55 1005 29.68 834 24.63 3.3 38 51 -5.7 21.7
08:00 1005 29.68 834 24.63 3.2 37.7 51 -6.1 21
08:05 1005 29.68 834 24.63 3.3 38 50 -6.2 20.8
08:10 1005 29.68 834 24.63 3.4 38.2 49 -6.2 20.9
08:15 1005 29.68 834 24.63 3.5 38.3 49 -6.2 20.8
08:20 1005 29.68 834 24.63 3.4 38.1 50 -6.2 20.9
08:25 1005 29.68 834 24.63 3.4 38 49 -6.3 20.6
08:30 1005 29.68 834 24.63 3.5 38.2 48 -6.6 20.2
08:35 1005 29.68 834 24.63 3.8 38.8 46 -6.9 19.6
08:40 1005 29.68 834 24.63 4.1 39.3 46 -6.5 20.3
08:45 1005 29.68 834 24.63 4.2 39.5 46 -6.5 20.3
08:50 1004 29.65 834 24.63 4.2 39.6 45 -6.5 20.2
08:55 1004 29.65 834 24.63 4.3 39.7 45 -6.6 20.2
09:00 1004 29.65 834 24.63 4.4 40 45 -6.4 20.4
09:05 1004 29.65 834 24.63 4.5 40.1 45 -6.6 20.2
09:10 1004 29.65 834 24.63 4.5 40.1 45 -6.3 20.7
09:15 1004 29.65 833 24.6 4.5 40 46 -6.3 20.7
09:20 1004 29.65 833 24.6 4.5 40.1 45 -6.3 20.7
09:25 1004 29.65 833 24.6 4.5 40.1 46 -6.2 20.8
09:30 1004 29.65 833 24.6 4.5 40 46 -6.2 20.9
09:35 1004 29.65 833 24.6 4.4 39.9 47 -5.9 21.3
09:40 1004 29.65 833 24.6 4.3 39.8 48 -5.7 21.7
09:45 1004 29.65 833 24.6 4.3 39.7 48 -5.8 21.6
09:50 1004 29.65 833 24.6 4.2 39.5 50 -5.4 22.3
09:55 1004 29.65 833 24.6 4.1 39.3 50 -5.6 22
10:00 1004 29.65 833 24.6 4.3 39.8 50 -5.3 22.5
10:05 1004 29.65 833 24.6 4.5 40 47 -5.8 21.5
10:10 1004 29.65 833 24.6 4.8 40.6 46 -5.9 21.4
10:15 1004 29.65 833 24.6 5.2 41.4 45 -5.7 21.8
10:20 1004 29.65 833 24.6 5 41 47 -5.5 22.1
10:25 1004 29.65 833 24.6 5 40.9 45 -6 21.3
10:30 1004 29.65 833 24.6 5.1 41.3 43 -6.3 20.6
10:35 1004 29.65 833 24.6 5.3 41.6 44 -6.1 21
10:40 1004 29.65 833 24.6 5.3 41.6 44 -6.1 21.1
10:45 1004 29.65 833 24.6 5.4 41.8 41 -6.7 20
10:50 1004 29.65 833 24.6 5.6 42.2 41 -6.4 20.4
10:55 1004 29.65 833 24.6 5.8 42.4 41 -6.6 20.1
11:00 1003 29.62 833 24.6 6.1 43 39 -6.7 19.9
11:05 1003 29.62 833 24.6 6.4 43.6 40 -6.2 20.9
11:10 1003 29.62 833 24.6 6.8 44.3 39 -6 21.2
11:15 1003 29.62 833 24.6 7.5 45.5 36 -6.6 20.2
11:20 1003 29.62 832 24.57 7.4 45.3 36 -6.7 20
11:25 1003 29.62 832 24.57 8.5 47.3 34 -6.4 20.5
11:30 1003 29.62 832 24.57 9 48.2 34 -6 21.2
11:35 1003 29.62 832 24.57 8.3 47 35 -6.3 20.7
11:40 1003 29.62 832 24.57 8.2 46.7 34 -6.9 19.6
11:45 1003 29.62 832 24.57 7.9 46.3 36 -6.1 21
11:50 1003 29.62 832 24.57 7 44.7 41 -5.2 22.6
11:55 1003 29.62 832 24.57 6 42.7 43 -5.8 21.6
12:00 1003 29.62 832 24.57 5.9 42.6 43 -5.9 21.4
12:05 1003 29.62 832 24.57 6.1 42.9 40 -6.7 20
12:10 1003 29.62 832 24.57 7.2 44.9 39 -6 21.2
12:15 1003 29.62 832 24.57 6.9 44.4 40 -5.7 21.7
12:20 1003 29.62 832 24.57 6 42.8 42 -5.9 21.3
12:25 1003 29.62 832 24.57 6.2 43.1 41 -6.1 21
12:30 1003 29.62 832 24.57 6.4 43.5 39 -6.6 20
12:35 1003 29.62 832 24.57 7 44.6 36 -7 19.4
12:40 1002 29.59 832 24.57 7.2 45 36 -7.1 19.3
12:45 1002 29.59 832 24.57 7.4 45.3 36 -6.8 19.7
12:50 1002 29.59 832 24.57 7.4 45.2 34 -7.5 18.4
12:55 1002 29.59 832 24.57 7.7 45.9 34 -7.3 18.8
13:00 1002 29.59 832 24.57 7.8 46.1 34 -7.1 19.3
13:05 1002 29.59 832 24.57 7.5 45.5 36 -6.7 19.9
13:10 1002 29.59 831 24.54 7.3 45.1 37 -6.3 20.6
13:15 1002 29.59 831 24.54 7.4 45.3 35 -7 19.5
13:20 1002 29.59 831 24.54 7.1 44.8 36 -6.8 19.7
13:25 1002 29.59 831 24.54 6.8 44.2 38 -6.5 20.2
13:30 1002 29.59 831 24.54 6.3 43.3 40 -6.3 20.7
13:35 1002 29.59 831 24.54 5.9 42.7 40 -6.8 19.8
13:40 1002 29.59 831 24.54 5.9 42.7 40 -6.6 20.1
13:45 1002 29.59 831 24.54 5.9 42.6 42 -6.1 20.9
13:50 1002 29.59 831 24.54 6 42.8 43 -5.7 21.8
13:55 1002 29.59 831 24.54 5.7 42.2 45 -5.3 22.4
14:00 1002 29.59 831 24.54 5.7 42.3 46 -4.9 23.1
14:05 1002 29.59 831 24.54 6.3 43.3 45 -4.8 23.4
14:10 1002 29.59 831 24.54 6.6 43.8 45 -4.5 24
14:15 1002 29.59 831 24.54 6.6 43.9 47 -3.8 25.1
14:20 1002 29.59 831 24.54 5.4 41.7 53 -3.4 25.8
14:25 1002 29.59 831 24.54 4.3 39.8 56 -3.8 25.2
14:30 1002 29.59 832 24.57 3.9 39.1 58 -3.5 25.8
14:35 1002 29.59 832 24.57 3.6 38.5 62 -3.1 26.4
14:40 1003 29.62 832 24.57 3.3 37.9 64 -2.8 27
14:45 1003 29.62 832 24.57 3.1 37.5 67 -2.6 27.4
14:50 1003 29.62 832 24.57 2.8 37 69 -2.3 27.8
14:55 1003 29.62 833 24.6 2.5 36.6 72 -1.9 28.5
15:00 1004 29.65 833 24.6 2.1 35.8 81 -0.9 30.4
15:05 1004 29.65 833 24.6 1.4 34.6 87 -0.5 31
15:10 1004 29.65 833 24.6 0.9 33.6 92 -0.3 31.4
15:15 1004 29.65 833 24.6 0.5 32.9 94 -0.4 31.3
15:20 1004 29.65 833 24.6 0.4 32.7 95 -0.4 31.3
15:25 1004 29.65 833 24.6 0.2 32.4 95 -0.4 31.2
15:30 1004 29.65 833 24.6 0.1 32.1 96 -0.5 31.1
15:35 1004 29.65 833 24.6 0 32 96 -0.6 31
15:40 1004 29.65 833 24.6 -0 31.9 96 -0.6 30.9
15:45 1004 29.65 833 24.6 -0.2 31.7 96 -0.7 30.8
15:50 1004 29.65 833 24.6 -0.2 31.7 97 -0.6 30.9
15:55 1004 29.65 833 24.6 -0.2 31.7 96 -0.8 30.6
16:00 1004 29.65 833 24.6 -0.3 31.4 96 -0.9 30.4
16:05 1004 29.65 833 24.6 -0.4 31.2 96 -1 30.1
16:10 1004 29.65 833 24.6 -0.6 31 96 -1.1 30
16:15 1004 29.65 834 24.63 -0.6 31 96 -1.1 30.1
16:20 1004 29.65 834 24.63 -0.6 31 97 -1 30.1
16:25 1005 29.68 834 24.63 -0.6 31 97 -1 30.2
16:30 1005 29.68 834 24.63 -0.4 31.2 96 -1 30.3
16:35 1005 29.68 834 24.63 -0.4 31.3 96 -1 30.2
16:40 1005 29.68 834 24.63 -0.5 31.1 95 -1.2 29.9
16:45 1005 29.68 834 24.63 -0.7 30.7 97 -1.2 29.8
16:50 1005 29.68 834 24.63 -0.7 30.7 97 -1.2 29.9
16:55 1005 29.68 834 24.63 -0.7 30.7 97 -1.2 29.8
17:00 1005 29.68 835 24.66 -0.7 30.7 97 -1.2 29.8
17:05 1006 29.71 835 24.66 -0.8 30.6 96 -1.3 29.7
17:10 1006 29.71 835 24.66 -0.9 30.3 96 -1.4 29.4
17:15 1006 29.71 835 24.66 -1 30.2 97 -1.4 29.4
17:20 1006 29.71 835 24.66 -1 30.3 97 -1.4 29.4
17:25 1006 29.71 835 24.66 -1 30.2 97 -1.5 29.4
17:30 1006 29.71 835 24.66 -1 30.1 97 -1.4 29.5
17:35 1006 29.71 835 24.66 -1 30.2 97 -1.4 29.6
17:40 1006 29.71 835 24.66 -1 30.2 97 -1.4 29.5
17:45 1006 29.71 835 24.66 -1.1 30 98 -1.4 29.4
17:50 1006 29.71 835 24.66 -1.2 29.9 98 -1.5 29.3
17:55 1006 29.71 835 24.66 -1.3 29.7 98 -1.6 29.1
18:00 1006 29.71 835 24.66 -1.4 29.5 98 -1.7 29
18:05 1006 29.71 835 24.66 -1.4 29.5 98 -1.6 29
18:10 1006 29.71 835 24.66 -1.4 29.5 98 -1.6 29.1
18:15 1006 29.71 835 24.66 -1.4 29.4 98 -1.7 29
18:20 1006 29.71 835 24.66 -1.5 29.4 98 -1.7 28.9
18:25 1006 29.71 835 24.66 -1.5 29.3 98 -1.8 28.8
18:30 1006 29.71 836 24.69 -1.5 29.2 98 -1.8 28.7
18:35 1006 29.71 836 24.69 -1.6 29.1 98 -1.9 28.5
18:40 1007 29.74 836 24.69 -1.6 29.1 97 -2 28.4
18:45 1007 29.74 836 24.69 -1.6 29.2 96 -2.1 28.3
18:50 1007 29.74 836 24.69 -1.5 29.3 96 -2.1 28.3
18:55 1007 29.74 836 24.69 -1.4 29.4 96 -2 28.3
19:00 1007 29.74 836 24.69 -1.4 29.4 95 -2.2 28.1
19:05 1007 29.74 836 24.69 -1.5 29.4 95 -2.2 28.1
19:10 1007 29.74 836 24.69 -1.4 29.4 94 -2.2 28
19:15 1007 29.74 836 24.69 -1.4 29.4 94 -2.3 27.8
19:20 1007 29.74 836 24.69 -1.5 29.4 93 -2.5 27.4
19:25 1007 29.74 836 24.69 -1.5 29.3 92 -2.7 27.2
19:30 1007 29.74 836 24.69 -1.5 29.3 90 -2.9 26.8
19:35 1007 29.74 836 24.69 -1.4 29.4 89 -3 26.7
19:40 1007 29.74 836 24.69 -1.4 29.4 89 -3 26.6
19:45 1007 29.74 837 24.72 -1.5 29.3 90 -2.9 26.8
19:50 1007 29.74 837 24.72 -1.6 29.1 90 -3.1 26.4
19:55 1007 29.74 837 24.72 -1.4 29.4 86 -3.5 25.6
20:00 1007 29.74 837 24.72 -1.2 29.9 84 -3.5 25.7
20:05 1008 29.77 837 24.72 -1 30.1 82 -3.7 25.4
20:10 1008 29.77 837 24.72 -1.1 29.9 86 -3.2 26.3
20:15 1008 29.77 837 24.72 -1.3 29.7 83 -3.8 25.2
20:20 1008 29.77 837 24.72 -1.2 29.9 83 -3.8 25.2
20:25 1008 29.77 837 24.72 -1 30.3 80 -4 24.9
20:30 1008 29.77 837 24.72 -0.9 30.4 79 -4.2 24.5
20:35 1008 29.77 837 24.72 -0.9 30.3 79 -4.1 24.7
20:40 1008 29.77 837 24.72 -1 30.3 80 -4 24.8
20:45 1008 29.77 838 24.75 -1 30.2 81 -3.8 25.1
20:50 1008 29.77 838 24.75 -1.1 30 88 -2.8 26.9
20:55 1008 29.77 838 24.75 -1.5 29.3 93 -2.6 27.4
21:00 1009 29.8 838 24.75 -1.7 29 94 -2.5 27.5
21:05 1009 29.8 838 24.75 -1.6 29.1 92 -2.7 27.2
21:10 1009 29.8 838 24.75 -1.6 29.1 91 -2.9 26.7
21:15 1009 29.8 838 24.75 -1.7 29 89 -3.3 26.1
21:20 1009 29.8 838 24.75 -1.7 29 87 -3.7 25.4
21:25 1009 29.8 838 24.75 -1.8 28.8 85 -4.1 24.7
21:30 1009 29.8 838 24.75 -2 28.5 82 -4.7 23.6
21:35 1009 29.8 838 24.75 -2 28.4 81 -4.9 23.1
21:40 1009 29.8 839 24.78 -2.1 28.2 83 -4.5 23.8
21:45 1010 29.83 839 24.78 -2.4 27.7 87 -4.3 24.3
21:50 1010 29.83 839 24.78 -2.7 27.1 88 -4.5 24
21:55 1010 29.83 839 24.78 -2.8 26.9 89 -4.4 24.1
22:00 1010 29.83 839 24.78 -3 26.7 90 -4.4 24.1
22:05 1010 29.83 839 24.78 -3.2 26.3 90 -4.5 23.9
22:10 1010 29.83 839 24.78 -3.2 26.2 90 -4.7 23.6
22:15 1010 29.83 839 24.78 -3.3 26.1 90 -4.8 23.4
22:20 1010 29.83 839 24.78 -3.3 26 89 -4.8 23.3
22:25 1010 29.83 839 24.78 -3.3 26.1 86 -5.3 22.4
22:30 1010 29.83 839 24.78 -3.1 26.4 80 -6 21.1
22:35 1010 29.83 839 24.78 -2.7 27.1 81 -5.6 21.9
22:40 1010 29.83 840 24.81 -2.7 27.1 86 -4.7 23.6
22:45 1010 29.83 840 24.81 -2.9 26.7 92 -4 24.8
22:50 1010 29.83 840 24.81 -3.2 26.3 94 -4 24.9
22:55 1011 29.85 840 24.81 -3.2 26.3 94 -4 24.8
23:00 1011 29.85 840 24.81 -3.2 26.2 94 -4.1 24.6
23:05 1011 29.85 840 24.81 -3.1 26.4 94 -4 24.8
23:10 1011 29.85 840 24.81 -3.1 26.5 93 -4.1 24.6
23:15 1011 29.85 840 24.81 -3.1 26.5 92 -4.2 24.5
23:20 1011 29.85 840 24.81 -3.1 26.4 92 -4.2 24.4
23:25 1011 29.85 840 24.81 -3.1 26.4 92 -4.3 24.2
23:30 1011 29.85 840 24.81 -3.1 26.4 91 -4.3 24.2
23:35 1011 29.85 840 24.81 -3.1 26.4 87 -4.9 23.1
23:40 1011 29.85 840 24.81 -3.1 26.4 88 -4.8 23.4
23:45 1011 29.85 840 24.81 -3.1 26.4 90 -4.6 23.8
23:50 1011 29.85 841 24.83 -3.2 26.3 90 -4.6 23.7
23:55 1011 29.85 841 24.83 -3.2 26.2 89 -4.8 23.3
24:00 1011 29.85 841 24.83 -3.3 26.1 89 -4.9 23.2